sensor_id;sensor_type;location;lat;lon;timestamp;pressure;altitude;pressure_sealevel;temperature;humidity
5966;BME280;3009;43.224;27.976;2023-04-24T00:02:16;100390.41;;;7.11;100.00
5966;BME280;3009;43.224;27.976;2023-04-24T00:04:45;100385.31;;;7.09;100.00
5966;BME280;3009;43.224;27.976;2023-04-24T00:07:14;100383.22;;;7.06;100.00
5966;BME280;3009;43.224;27.976;2023-04-24T00:09:43;100379.03;;;7.00;100.00
5966;BME280;3009;43.224;27.976;2023-04-24T00:12:11;100377.28;;;6.90;100.00
5966;BME280;3009;43.224;27.976;2023-04-24T00:14:40;100379.47;;;6.83;100.00
5966;BME280;3009;43.224;27.976;2023-04-24T00:17:09;100374.78;;;6.75;100.00
5966;BME280;3009;43.224;27.976;2023-04-24T00:19:38;100374.25;;;6.73;100.00
5966;BME280;3009;43.224;27.976;2023-04-24T00:22:06;100374.59;;;6.66;100.00
5966;BME280;3009;43.224;27.976;2023-04-24T00:24:35;100374.63;;;6.61;100.00
5966;BME280;3009;43.224;27.976;2023-04-24T00:27:03;100384.00;;;6.59;100.00
5966;BME280;3009;43.224;27.976;2023-04-24T00:29:31;100374.78;;;6.46;100.00
5966;BME280;3009;43.224;27.976;2023-04-24T00:32:00;100372.94;;;6.41;100.00
5966;BME280;3009;43.224;27.976;2023-04-24T00:34:30;100375.81;;;6.50;100.00
5966;BME280;3009;43.224;27.976;2023-04-24T00:36:59;100375.03;;;6.49;100.00
5966;BME280;3009;43.224;27.976;2023-04-24T00:39:27;100377.00;;;6.63;100.00
5966;BME280;3009;43.224;27.976;2023-04-24T00:41:56;100379.00;;;6.76;100.00
5966;BME280;3009;43.224;27.976;2023-04-24T00:44:24;100373.38;;;6.83;100.00
5966;BME280;3009;43.224;27.976;2023-04-24T00:46:53;100374.03;;;6.94;100.00
5966;BME280;3009;43.224;27.976;2023-04-24T00:49:22;100378.31;;;6.95;100.00
5966;BME280;3009;43.224;27.976;2023-04-24T00:51:52;100367.38;;;6.96;100.00
5966;BME280;3009;43.224;27.976;2023-04-24T00:54:20;100373.94;;;7.04;100.00
5966;BME280;3009;43.224;27.976;2023-04-24T00:56:49;100380.22;;;7.13;100.00
5966;BME280;3009;43.224;27.976;2023-04-24T00:59:18;100370.75;;;7.02;100.00
5966;BME280;3009;43.224;27.976;2023-04-24T01:01:46;100369.75;;;6.98;100.00
5966;BME280;3009;43.224;27.976;2023-04-24T01:04:16;100371.66;;;6.92;100.00
5966;BME280;3009;43.224;27.976;2023-04-24T01:06:46;100371.94;;;6.90;100.00
5966;BME280;3009;43.224;27.976;2023-04-24T01:09:16;100379.66;;;6.92;100.00
5966;BME280;3009;43.224;27.976;2023-04-24T01:11:46;100368.22;;;6.91;100.00
5966;BME280;3009;43.224;27.976;2023-04-24T01:14:14;100374.03;;;6.94;100.00
5966;BME280;3009;43.224;27.976;2023-04-24T01:16:43;100371.09;;;6.95;100.00
5966;BME280;3009;43.224;27.976;2023-04-24T01:19:12;100368.94;;;6.97;100.00
5966;BME280;3009;43.224;27.976;2023-04-24T01:21:43;100369.75;;;6.98;100.00
5966;BME280;3009;43.224;27.976;2023-04-24T01:24:13;100371.47;;;6.83;100.00
5966;BME280;3009;43.224;27.976;2023-04-24T01:26:42;100378.56;;;6.69;100.00
5966;BME280;3009;43.224;27.976;2023-04-24T01:29:10;100364.50;;;6.63;100.00
5966;BME280;3009;43.224;27.976;2023-04-24T01:31:39;100369.56;;;6.60;100.00
5966;BME280;3009;43.224;27.976;2023-04-24T01:34:07;100373.91;;;6.55;100.00
5966;BME280;3009;43.224;27.976;2023-04-24T01:36:36;100366.97;;;6.54;100.00
5966;BME280;3009;43.224;27.976;2023-04-24T01:39:05;100370.47;;;6.50;100.00
5966;BME280;3009;43.224;27.976;2023-04-24T01:41:36;100360.38;;;6.47;100.00
5966;BME280;3009;43.224;27.976;2023-04-24T01:44:04;100365.72;;;6.47;100.00
5966;BME280;3009;43.224;27.976;2023-04-24T01:46:33;100366.03;;;6.40;100.00
5966;BME280;3009;43.224;27.976;2023-04-24T01:49:02;100361.50;;;6.41;100.00
5966;BME280;3009;43.224;27.976;2023-04-24T01:51:30;100367.06;;;6.44;100.00
5966;BME280;3009;43.224;27.976;2023-04-24T01:53:59;100368.56;;;6.55;100.00
5966;BME280;3009;43.224;27.976;2023-04-24T01:56:29;100369.53;;;6.65;100.00
5966;BME280;3009;43.224;27.976;2023-04-24T01:58:59;100363.16;;;6.66;100.00
5966;BME280;3009;43.224;27.976;2023-04-24T02:01:33;100366.88;;;6.65;100.00
5966;BME280;3009;43.224;27.976;2023-04-24T02:04:03;100368.13;;;6.72;100.00
5966;BME280;3009;43.224;27.976;2023-04-24T02:06:32;100367.00;;;6.79;100.00
5966;BME280;3009;43.224;27.976;2023-04-24T02:09:01;100358.78;;;6.75;100.00
5966;BME280;3009;43.224;27.976;2023-04-24T02:11:30;100355.56;;;6.78;100.00
5966;BME280;3009;43.224;27.976;2023-04-24T02:13:59;100358.16;;;6.83;100.00
5966;BME280;3009;43.224;27.976;2023-04-24T02:16:28;100358.06;;;6.94;100.00
5966;BME280;3009;43.224;27.976;2023-04-24T02:18:59;100357.41;;;7.02;100.00
5966;BME280;3009;43.224;27.976;2023-04-24T02:21:27;100359.88;;;6.98;100.00
5966;BME280;3009;43.224;27.976;2023-04-24T02:23:57;100361.28;;;6.90;100.00
5966;BME280;3009;43.224;27.976;2023-04-24T02:26:25;100354.88;;;6.91;100.00
5966;BME280;3009;43.224;27.976;2023-04-24T02:28:54;100361.75;;;6.98;100.00
5966;BME280;3009;43.224;27.976;2023-04-24T02:31:23;100361.09;;;7.06;100.00
5966;BME280;3009;43.224;27.976;2023-04-24T02:33:52;100358.50;;;7.01;100.00
5966;BME280;3009;43.224;27.976;2023-04-24T02:36:20;100358.63;;;6.90;100.00
5966;BME280;3009;43.224;27.976;2023-04-24T02:38:49;100356.34;;;6.79;100.00
5966;BME280;3009;43.224;27.976;2023-04-24T02:41:18;100354.47;;;6.79;100.00
5966;BME280;3009;43.224;27.976;2023-04-24T02:43:46;100359.78;;;6.79;100.00
5966;BME280;3009;43.224;27.976;2023-04-24T02:46:15;100358.22;;;6.78;100.00
5966;BME280;3009;43.224;27.976;2023-04-24T02:48:45;100360.34;;;6.76;100.00
5966;BME280;3009;43.224;27.976;2023-04-24T02:51:13;100365.19;;;6.74;100.00
5966;BME280;3009;43.224;27.976;2023-04-24T02:53:41;100370.50;;;6.74;100.00
5966;BME280;3009;43.224;27.976;2023-04-24T02:56:10;100357.94;;;6.80;100.00
5966;BME280;3009;43.224;27.976;2023-04-24T02:58:39;100359.28;;;6.77;100.00
5966;BME280;3009;43.224;27.976;2023-04-24T03:01:07;100364.13;;;6.75;100.00
5966;BME280;3009;43.224;27.976;2023-04-24T03:03:37;100365.09;;;6.84;100.00
5966;BME280;3009;43.224;27.976;2023-04-24T03:06:07;100366.13;;;6.88;100.00
5966;BME280;3009;43.224;27.976;2023-04-24T03:08:36;100361.59;;;6.84;100.00
5966;BME280;3009;43.224;27.976;2023-04-24T03:11:04;100367.47;;;6.86;100.00
5966;BME280;3009;43.224;27.976;2023-04-24T03:13:32;100366.91;;;6.89;100.00
5966;BME280;3009;43.224;27.976;2023-04-24T03:16:01;100359.41;;;6.91;100.00
5966;BME280;3009;43.224;27.976;2023-04-24T03:18:30;100362.59;;;6.93;100.00
5966;BME280;3009;43.224;27.976;2023-04-24T03:20:58;100362.06;;;6.91;100.00
5966;BME280;3009;43.224;27.976;2023-04-24T03:23:28;100360.22;;;6.91;100.00
5966;BME280;3009;43.224;27.976;2023-04-24T03:25:56;100358.22;;;7.02;100.00
5966;BME280;3009;43.224;27.976;2023-04-24T03:28:25;100373.03;;;7.14;100.00
5966;BME280;3009;43.224;27.976;2023-04-24T03:30:53;100372.03;;;7.28;100.00
5966;BME280;3009;43.224;27.976;2023-04-24T03:33:21;100368.13;;;7.64;100.00
5966;BME280;3009;43.224;27.976;2023-04-24T03:35:50;100364.41;;;8.17;100.00
5966;BME280;3009;43.224;27.976;2023-04-24T03:38:18;100369.50;;;8.65;100.00
5966;BME280;3009;43.224;27.976;2023-04-24T03:40:48;100359.50;;;9.40;100.00
5966;BME280;3009;43.224;27.976;2023-04-24T03:43:16;100364.28;;;10.03;100.00
5966;BME280;3009;43.224;27.976;2023-04-24T03:45:45;100353.47;;;10.62;100.00
5966;BME280;3009;43.224;27.976;2023-04-24T03:48:13;100352.69;;;11.10;100.00
5966;BME280;3009;43.224;27.976;2023-04-24T03:50:41;100356.09;;;11.51;100.00
5966;BME280;3009;43.224;27.976;2023-04-24T03:53:10;100353.91;;;12.05;100.00
5966;BME280;3009;43.224;27.976;2023-04-24T03:55:38;100358.72;;;12.47;96.27
5966;BME280;3009;43.224;27.976;2023-04-24T03:58:08;100356.31;;;13.02;91.12
5966;BME280;3009;43.224;27.976;2023-04-24T04:00:37;100356.97;;;13.71;85.35
5966;BME280;3009;43.224;27.976;2023-04-24T04:03:07;100357.69;;;14.01;81.40
5966;BME280;3009;43.224;27.976;2023-04-24T04:05:35;100357.22;;;14.32;77.28
5966;BME280;3009;43.224;27.976;2023-04-24T04:08:04;100363.06;;;14.80;75.84
5966;BME280;3009;43.224;27.976;2023-04-24T04:10:32;100363.59;;;14.61;73.96
5966;BME280;3009;43.224;27.976;2023-04-24T04:13:01;100360.69;;;14.79;75.08
5966;BME280;3009;43.224;27.976;2023-04-24T04:15:30;100359.41;;;15.38;73.84
5966;BME280;3009;43.224;27.976;2023-04-24T04:17:59;100359.34;;;16.03;69.86
5966;BME280;3009;43.224;27.976;2023-04-24T04:20:27;100358.69;;;16.06;69.34
5966;BME280;3009;43.224;27.976;2023-04-24T04:22:56;100361.69;;;15.76;71.94
5966;BME280;3009;43.224;27.976;2023-04-24T04:25:24;100363.06;;;16.11;71.36
5966;BME280;3009;43.224;27.976;2023-04-24T04:27:52;100355.69;;;16.72;68.59
5966;BME280;3009;43.224;27.976;2023-04-24T04:30:21;100358.34;;;16.08;70.43
5966;BME280;3009;43.224;27.976;2023-04-24T04:32:51;100360.41;;;16.91;68.56
5966;BME280;3009;43.224;27.976;2023-04-24T04:35:20;100360.28;;;17.74;65.04
5966;BME280;3009;43.224;27.976;2023-04-24T04:37:48;100353.31;;;18.35;61.03
5966;BME280;3009;43.224;27.976;2023-04-24T04:40:18;100360.41;;;18.90;59.10
5966;BME280;3009;43.224;27.976;2023-04-24T04:42:46;100363.19;;;17.46;63.25
5966;BME280;3009;43.224;27.976;2023-04-24T04:45:14;100364.56;;;16.40;68.73
5966;BME280;3009;43.224;27.976;2023-04-24T04:47:43;100361.97;;;16.60;69.41
5966;BME280;3009;43.224;27.976;2023-04-24T04:50:13;100362.59;;;16.69;68.62
5966;BME280;3009;43.224;27.976;2023-04-24T04:52:43;100362.41;;;17.45;64.91
5966;BME280;3009;43.224;27.976;2023-04-24T04:55:11;100361.72;;;17.48;62.75
5966;BME280;3009;43.224;27.976;2023-04-24T04:57:41;100361.66;;;19.50;54.98
5966;BME280;3009;43.224;27.976;2023-04-24T05:00:10;100354.78;;;19.59;53.09
5966;BME280;3009;43.224;27.976;2023-04-24T05:02:39;100361.22;;;19.17;55.49
5966;BME280;3009;43.224;27.976;2023-04-24T05:05:08;100357.66;;;20.04;50.41
5966;BME280;3009;43.224;27.976;2023-04-24T05:07:38;100359.28;;;17.82;59.06
5966;BME280;3009;43.224;27.976;2023-04-24T05:10:08;100363.97;;;18.48;58.04
5966;BME280;3009;43.224;27.976;2023-04-24T05:12:37;100361.16;;;20.05;51.92
5966;BME280;3009;43.224;27.976;2023-04-24T05:15:06;100356.63;;;20.19;51.52
5966;BME280;3009;43.224;27.976;2023-04-24T05:17:36;100359.78;;;21.18;49.15
5966;BME280;3009;43.224;27.976;2023-04-24T05:20:07;100359.59;;;20.41;49.63
5966;BME280;3009;43.224;27.976;2023-04-24T05:22:39;100359.78;;;19.84;51.56
5966;BME280;3009;43.224;27.976;2023-04-24T05:25:07;100363.28;;;18.08;56.88
5966;BME280;3009;43.224;27.976;2023-04-24T05:27:36;100356.88;;;17.97;57.94
5966;BME280;3009;43.224;27.976;2023-04-24T05:30:05;100359.88;;;17.92;60.21
5966;BME280;3009;43.224;27.976;2023-04-24T05:32:34;100356.47;;;17.40;62.41
5966;BME280;3009;43.224;27.976;2023-04-24T05:35:02;100349.41;;;19.06;57.03
5966;BME280;3009;43.224;27.976;2023-04-24T05:37:31;100352.50;;;20.36;52.24
5966;BME280;3009;43.224;27.976;2023-04-24T05:40:01;100355.06;;;21.12;49.63
5966;BME280;3009;43.224;27.976;2023-04-24T05:42:31;100361.22;;;21.75;46.97
5966;BME280;3009;43.224;27.976;2023-04-24T05:45:00;100360.88;;;21.80;46.57
5966;BME280;3009;43.224;27.976;2023-04-24T05:47:30;100358.91;;;21.84;45.57
5966;BME280;3009;43.224;27.976;2023-04-24T05:49:58;100362.13;;;22.29;44.96
5966;BME280;3009;43.224;27.976;2023-04-24T05:52:26;100366.03;;;22.21;43.93
5966;BME280;3009;43.224;27.976;2023-04-24T05:54:55;100366.03;;;22.14;44.85
5966;BME280;3009;43.224;27.976;2023-04-24T05:57:24;100363.63;;;21.98;44.65
5966;BME280;3009;43.224;27.976;2023-04-24T05:59:53;100362.91;;;22.23;44.26
5966;BME280;3009;43.224;27.976;2023-04-24T06:02:21;100358.91;;;21.81;45.77
5966;BME280;3009;43.224;27.976;2023-04-24T06:04:50;100366.03;;;22.10;43.98
5966;BME280;3009;43.224;27.976;2023-04-24T06:07:18;100361.78;;;22.89;42.46
5966;BME280;3009;43.224;27.976;2023-04-24T06:09:47;100362.16;;;21.27;45.71
5966;BME280;3009;43.224;27.976;2023-04-24T06:12:15;100367.13;;;21.88;44.76
5966;BME280;3009;43.224;27.976;2023-04-24T06:14:45;100370.19;;;21.75;45.10
5966;BME280;3009;43.224;27.976;2023-04-24T06:17:13;100372.88;;;20.95;47.74
5966;BME280;3009;43.224;27.976;2023-04-24T06:19:42;100367.84;;;21.74;45.38
5966;BME280;3009;43.224;27.976;2023-04-24T06:22:10;100369.06;;;19.79;49.26
5966;BME280;3009;43.224;27.976;2023-04-24T06:24:39;100377.78;;;20.75;48.57
5966;BME280;3009;43.224;27.976;2023-04-24T06:27:08;100372.66;;;21.21;47.25
5966;BME280;3009;43.224;27.976;2023-04-24T06:29:36;100373.66;;;20.50;49.58
5966;BME280;3009;43.224;27.976;2023-04-24T06:32:06;100371.06;;;21.98;45.78
5966;BME280;3009;43.224;27.976;2023-04-24T06:34:34;100370.72;;;21.25;46.77
5966;BME280;3009;43.224;27.976;2023-04-24T06:37:03;100368.63;;;20.11;50.91
5966;BME280;3009;43.224;27.976;2023-04-24T06:39:31;100377.78;;;21.37;48.36
5966;BME280;3009;43.224;27.976;2023-04-24T06:42:00;100374.44;;;21.66;46.59
5966;BME280;3009;43.224;27.976;2023-04-24T06:44:28;100366.72;;;21.82;46.42
5966;BME280;3009;43.224;27.976;2023-04-24T06:46:56;100368.03;;;20.74;48.66
5966;BME280;3009;43.224;27.976;2023-04-24T06:49:26;100369.00;;;20.54;50.22
5966;BME280;3009;43.224;27.976;2023-04-24T06:51:54;100375.53;;;20.84;49.37
5966;BME280;3009;43.224;27.976;2023-04-24T06:54:23;100365.25;;;20.66;50.40
5966;BME280;3009;43.224;27.976;2023-04-24T06:56:51;100374.31;;;21.40;48.63
5966;BME280;3009;43.224;27.976;2023-04-24T06:59:19;100369.53;;;21.23;48.40
5966;BME280;3009;43.224;27.976;2023-04-24T07:01:48;100371.38;;;21.78;47.36
5966;BME280;3009;43.224;27.976;2023-04-24T07:04:18;100377.56;;;21.68;47.24
5966;BME280;3009;43.224;27.976;2023-04-24T07:06:48;100380.34;;;21.75;46.32
5966;BME280;3009;43.224;27.976;2023-04-24T07:09:18;100387.56;;;21.42;48.36
5966;BME280;3009;43.224;27.976;2023-04-24T07:11:46;100380.72;;;20.55;49.07
5966;BME280;3009;43.224;27.976;2023-04-24T07:14:15;100383.56;;;20.69;49.70
5966;BME280;3009;43.224;27.976;2023-04-24T07:16:43;100389.03;;;21.25;47.92
5966;BME280;3009;43.224;27.976;2023-04-24T07:19:13;100388.75;;;19.73;52.55
5966;BME280;3009;43.224;27.976;2023-04-24T07:21:41;100377.59;;;19.78;53.39
5966;BME280;3009;43.224;27.976;2023-04-24T07:24:11;100387.88;;;20.33;52.48
5966;BME280;3009;43.224;27.976;2023-04-24T07:26:39;100393.56;;;19.83;53.65
5966;BME280;3009;43.224;27.976;2023-04-24T07:29:08;100384.75;;;19.93;53.92
5966;BME280;3009;43.224;27.976;2023-04-24T07:31:37;100390.75;;;19.19;56.46
5966;BME280;3009;43.224;27.976;2023-04-24T07:34:05;100384.69;;;18.79;59.04
5966;BME280;3009;43.224;27.976;2023-04-24T07:36:33;100390.09;;;17.54;66.40
5966;BME280;3009;43.224;27.976;2023-04-24T07:39:02;100380.34;;;16.98;71.51
5966;BME280;3009;43.224;27.976;2023-04-24T07:41:32;100387.97;;;16.33;76.14
5966;BME280;3009;43.224;27.976;2023-04-24T07:44:00;100387.47;;;16.15;79.80
5966;BME280;3009;43.224;27.976;2023-04-24T07:46:29;100400.06;;;15.94;83.52
5966;BME280;3009;43.224;27.976;2023-04-24T07:48:58;100393.94;;;15.57;85.81
5966;BME280;3009;43.224;27.976;2023-04-24T07:51:39;100398.25;;;14.84;92.17
5966;BME280;3009;43.224;27.976;2023-04-24T07:54:08;100405.13;;;15.31;91.76
5966;BME280;3009;43.224;27.976;2023-04-24T07:56:38;100406.59;;;14.45;96.15
5966;BME280;3009;43.224;27.976;2023-04-24T07:59:07;100417.06;;;13.71;97.89
5966;BME280;3009;43.224;27.976;2023-04-24T08:01:36;100417.72;;;13.38;100.00
5966;BME280;3009;43.224;27.976;2023-04-24T08:04:04;100410.81;;;14.00;100.00
5966;BME280;3009;43.224;27.976;2023-04-24T08:06:34;100405.19;;;14.27;100.00
5966;BME280;3009;43.224;27.976;2023-04-24T08:09:02;100408.34;;;14.62;99.23
5966;BME280;3009;43.224;27.976;2023-04-24T08:11:31;100405.00;;;14.78;95.73
5966;BME280;3009;43.224;27.976;2023-04-24T08:14:01;100410.41;;;14.11;97.40
5966;BME280;3009;43.224;27.976;2023-04-24T08:16:29;100409.75;;;13.93;100.00
5966;BME280;3009;43.224;27.976;2023-04-24T08:18:57;100421.28;;;13.51;100.00
5966;BME280;3009;43.224;27.976;2023-04-24T08:21:26;100415.88;;;13.30;100.00
5966;BME280;3009;43.224;27.976;2023-04-24T08:23:54;100415.88;;;13.30;100.00
5966;BME280;3009;43.224;27.976;2023-04-24T08:26:22;100418.91;;;13.50;100.00
5966;BME280;3009;43.224;27.976;2023-04-24T08:28:51;100416.00;;;13.63;100.00
5966;BME280;3009;43.224;27.976;2023-04-24T08:31:21;100414.31;;;14.01;100.00
5966;BME280;3009;43.224;27.976;2023-04-24T08:33:51;100412.63;;;14.30;100.00
5966;BME280;3009;43.224;27.976;2023-04-24T08:36:20;100412.44;;;14.47;100.00
5966;BME280;3009;43.224;27.976;2023-04-24T08:38:52;100416.34;;;13.62;100.00
5966;BME280;3009;43.224;27.976;2023-04-24T08:41:21;100412.28;;;14.31;100.00
5966;BME280;3009;43.224;27.976;2023-04-24T08:43:53;100407.94;;;14.39;100.00
5966;BME280;3009;43.224;27.976;2023-04-24T08:46:24;100406.88;;;13.77;100.00
5966;BME280;3009;43.224;27.976;2023-04-24T08:48:52;100409.69;;;13.59;100.00
5966;BME280;3009;43.224;27.976;2023-04-24T08:51:21;100402.94;;;13.95;100.00
5966;BME280;3009;43.224;27.976;2023-04-24T08:53:51;100405.03;;;13.69;100.00
5966;BME280;3009;43.224;27.976;2023-04-24T08:56:21;100401.16;;;13.57;100.00
5966;BME280;3009;43.224;27.976;2023-04-24T08:58:51;100402.44;;;13.93;100.00
5966;BME280;3009;43.224;27.976;2023-04-24T09:01:20;100404.22;;;14.10;100.00
5966;BME280;3009;43.224;27.976;2023-04-24T09:03:51;100405.28;;;14.18;100.00
5966;BME280;3009;43.224;27.976;2023-04-24T09:06:21;100396.50;;;13.67;100.00
5966;BME280;3009;43.224;27.976;2023-04-24T09:08:52;100394.09;;;13.44;100.00
5966;BME280;3009;43.224;27.976;2023-04-24T09:11:23;100396.72;;;13.95;100.00
5966;BME280;3009;43.224;27.976;2023-04-24T09:13:53;100392.34;;;14.57;100.00
5966;BME280;3009;43.224;27.976;2023-04-24T09:16:22;100392.34;;;14.57;100.00
5966;BME280;3009;43.224;27.976;2023-04-24T09:18:53;100392.41;;;14.82;100.00
5966;BME280;3009;43.224;27.976;2023-04-24T09:21:22;100394.19;;;14.65;100.00
5966;BME280;3009;43.224;27.976;2023-04-24T09:24:00;100394.25;;;13.90;100.00
5966;BME280;3009;43.224;27.976;2023-04-24T09:26:30;100405.97;;;14.27;100.00
5966;BME280;3009;43.224;27.976;2023-04-24T09:29:00;100401.56;;;14.56;100.00
5966;BME280;3009;43.224;27.976;2023-04-24T09:31:29;100404.78;;;14.83;99.94
5966;BME280;3009;43.224;27.976;2023-04-24T09:34:00;100399.88;;;14.18;100.00
5966;BME280;3009;43.224;27.976;2023-04-24T09:36:34;100400.91;;;14.26;100.00
5966;BME280;3009;43.224;27.976;2023-04-24T09:39:05;100392.50;;;14.27;100.00
5966;BME280;3009;43.224;27.976;2023-04-24T09:41:44;100403.94;;;14.24;100.00
5966;BME280;3009;43.224;27.976;2023-04-24T09:44:14;100399.28;;;14.46;100.00
5966;BME280;3009;43.224;27.976;2023-04-24T09:46:44;100391.28;;;14.37;100.00
5966;BME280;3009;43.224;27.976;2023-04-24T09:49:15;100399.94;;;14.43;100.00
5966;BME280;3009;43.224;27.976;2023-04-24T09:51:44;100394.19;;;13.77;100.00
5966;BME280;3009;43.224;27.976;2023-04-24T09:54:16;100388.78;;;13.98;100.00
5966;BME280;3009;43.224;27.976;2023-04-24T09:56:48;100393.41;;;13.56;100.00
5966;BME280;3009;43.224;27.976;2023-04-24T09:59:17;100391.22;;;13.49;100.00
5966;BME280;3009;43.224;27.976;2023-04-24T10:01:46;100384.91;;;13.87;100.00
5966;BME280;3009;43.224;27.976;2023-04-24T10:04:18;100382.13;;;13.96;100.00
5966;BME280;3009;43.224;27.976;2023-04-24T10:06:48;100377.78;;;14.04;100.00
5966;BME280;3009;43.224;27.976;2023-04-24T10:09:17;100379.34;;;14.26;100.00
5966;BME280;3009;43.224;27.976;2023-04-24T10:11:49;100373.38;;;14.32;100.00
5966;BME280;3009;43.224;27.976;2023-04-24T10:14:18;100376.63;;;13.92;100.00
5966;BME280;3009;43.224;27.976;2023-04-24T10:16:47;100374.53;;;13.77;100.00
5966;BME280;3009;43.224;27.976;2023-04-24T10:19:18;100377.66;;;12.98;100.00
5966;BME280;3009;43.224;27.976;2023-04-24T10:21:47;100385.47;;;12.91;100.00
5966;BME280;3009;43.224;27.976;2023-04-24T10:24:16;100382.19;;;13.45;100.00
5966;BME280;3009;43.224;27.976;2023-04-24T10:26:45;100372.44;;;13.32;100.00
5966;BME280;3009;43.224;27.976;2023-04-24T10:29:18;100375.97;;;13.53;100.00
5966;BME280;3009;43.224;27.976;2023-04-24T10:31:48;100375.44;;;13.60;100.00
5966;BME280;3009;43.224;27.976;2023-04-24T10:34:20;100363.78;;;13.77;100.00
5966;BME280;3009;43.224;27.976;2023-04-24T10:36:51;100364.56;;;14.11;100.00
5966;BME280;3009;43.224;27.976;2023-04-24T10:39:23;100359.50;;;14.09;100.00
5966;BME280;3009;43.224;27.976;2023-04-24T10:41:54;100371.47;;;14.21;100.00
5966;BME280;3009;43.224;27.976;2023-04-24T10:44:24;100371.69;;;13.52;100.00
5966;BME280;3009;43.224;27.976;2023-04-24T10:46:54;100362.94;;;13.97;100.00
5966;BME280;3009;43.224;27.976;2023-04-24T10:49:29;100364.84;;;13.97;100.00
5966;BME280;3009;43.224;27.976;2023-04-24T10:52:01;100361.63;;;14.04;100.00
5966;BME280;3009;43.224;27.976;2023-04-24T10:54:35;100373.88;;;13.80;100.00
5966;BME280;3009;43.224;27.976;2023-04-24T10:57:27;100362.97;;;14.10;100.00
5966;BME280;3009;43.224;27.976;2023-04-24T11:00:16;100367.88;;;13.95;100.00
5966;BME280;3009;43.224;27.976;2023-04-24T11:02:47;100363.09;;;14.01;100.00
5966;BME280;3009;43.224;27.976;2023-04-24T11:05:22;100355.34;;;13.99;100.00
5966;BME280;3009;43.224;27.976;2023-04-24T11:08:12;100364.34;;;14.16;100.00
5966;BME280;3009;43.224;27.976;2023-04-24T11:10:44;100349.69;;;14.38;100.00
5966;BME280;3009;43.224;27.976;2023-04-24T11:13:15;100343.25;;;14.18;100.00
5966;BME280;3009;43.224;27.976;2023-04-24T11:15:43;100343.94;;;14.27;100.00
5966;BME280;3009;43.224;27.976;2023-04-24T11:18:15;100341.41;;;14.43;100.00
5966;BME280;3009;43.224;27.976;2023-04-24T11:20:46;100340.72;;;14.00;100.00
5966;BME280;3009;43.224;27.976;2023-04-24T11:23:15;100348.13;;;14.04;100.00
5966;BME280;3009;43.224;27.976;2023-04-24T11:25:44;100339.06;;;14.08;100.00
5966;BME280;3009;43.224;27.976;2023-04-24T11:28:15;100345.84;;;13.93;100.00
5966;BME280;3009;43.224;27.976;2023-04-24T11:30:44;100337.28;;;13.37;100.00
5966;BME280;3009;43.224;27.976;2023-04-24T11:33:19;100336.84;;;13.56;100.00
5966;BME280;3009;43.224;27.976;2023-04-24T11:35:51;100333.88;;;13.70;100.00
5966;BME280;3009;43.224;27.976;2023-04-24T11:38:19;100330.13;;;13.41;100.00
5966;BME280;3009;43.224;27.976;2023-04-24T11:40:51;100332.66;;;13.58;100.00
5966;BME280;3009;43.224;27.976;2023-04-24T11:43:20;100335.69;;;13.06;100.00
5966;BME280;3009;43.224;27.976;2023-04-24T11:45:49;100331.25;;;13.31;100.00
5966;BME280;3009;43.224;27.976;2023-04-24T11:48:19;100337.22;;;13.67;100.00
5966;BME280;3009;43.224;27.976;2023-04-24T11:50:51;100335.63;;;13.44;100.00
5966;BME280;3009;43.224;27.976;2023-04-24T11:53:20;100328.81;;;13.68;100.00
5966;BME280;3009;43.224;27.976;2023-04-24T11:55:48;100330.91;;;13.41;100.00
5966;BME280;3009;43.224;27.976;2023-04-24T11:58:20;100322.50;;;13.43;100.00
5966;BME280;3009;43.224;27.976;2023-04-24T12:00:56;100322.97;;;13.15;100.00
5966;BME280;3009;43.224;27.976;2023-04-24T12:03:25;100323.44;;;12.87;100.00
5966;BME280;3009;43.224;27.976;2023-04-24T12:06:04;100322.50;;;13.13;100.00
5966;BME280;3009;43.224;27.976;2023-04-24T12:08:34;100314.38;;;12.92;100.00
5966;BME280;3009;43.224;27.976;2023-04-24T12:11:06;100308.56;;;12.51;100.00
5966;BME280;3009;43.224;27.976;2023-04-24T12:13:35;100309.91;;;12.66;100.00
5966;BME280;3009;43.224;27.976;2023-04-24T12:16:04;100302.59;;;13.05;100.00
5966;BME280;3009;43.224;27.976;2023-04-24T12:18:33;100296.31;;;13.22;100.00
5966;BME280;3009;43.224;27.976;2023-04-24T12:21:21;100299.38;;;13.42;100.00
5966;BME280;3009;43.224;27.976;2023-04-24T12:23:50;100292.72;;;13.18;100.00
5966;BME280;3009;43.224;27.976;2023-04-24T12:26:19;100294.09;;;13.24;100.00
5966;BME280;3009;43.224;27.976;2023-04-24T12:28:49;100299.78;;;13.02;100.00
5966;BME280;3009;43.224;27.976;2023-04-24T12:31:20;100295.50;;;13.01;100.00
5966;BME280;3009;43.224;27.976;2023-04-24T12:33:49;100288.00;;;12.85;100.00
5966;BME280;3009;43.224;27.976;2023-04-24T12:36:17;100291.19;;;12.49;100.00
5966;BME280;3009;43.224;27.976;2023-04-24T12:38:52;100289.53;;;12.65;100.00
5966;BME280;3009;43.224;27.976;2023-04-24T12:41:21;100294.97;;;12.86;100.00
5966;BME280;3009;43.224;27.976;2023-04-24T12:43:52;100292.47;;;13.02;100.00
5966;BME280;3009;43.224;27.976;2023-04-24T12:46:22;100287.19;;;13.15;100.00
5966;BME280;3009;43.224;27.976;2023-04-24T12:48:50;100282.59;;;13.15;100.00
5966;BME280;3009;43.224;27.976;2023-04-24T12:51:19;100274.09;;;13.04;100.00
5966;BME280;3009;43.224;27.976;2023-04-24T12:53:48;100276.38;;;12.93;100.00
5966;BME280;3009;43.224;27.976;2023-04-24T12:56:17;100274.41;;;13.03;100.00
5966;BME280;3009;43.224;27.976;2023-04-24T12:58:45;100270.84;;;13.20;100.00
5966;BME280;3009;43.224;27.976;2023-04-24T13:01:14;100267.63;;;13.26;100.00
5966;BME280;3009;43.224;27.976;2023-04-24T13:03:42;100262.16;;;13.14;100.00
5966;BME280;3009;43.224;27.976;2023-04-24T13:06:12;100262.69;;;13.28;100.00
5966;BME280;3009;43.224;27.976;2023-04-24T13:08:40;100261.16;;;12.98;100.00